createdAt,value
2018-11-12T00:00:28.417Z,90.24
2018-11-12T00:02:57.130Z,90.17
2018-11-12T00:05:25.752Z,90.11
2018-11-12T00:07:54.337Z,90.08
2018-11-12T00:10:22.961Z,90.37
2018-11-12T00:12:51.418Z,90.12
2018-11-12T00:15:20.065Z,90.58
2018-11-12T00:17:48.935Z,90.12
2018-11-12T00:20:18.000Z,90.36
2018-11-12T00:22:46.983Z,90.53
2018-11-12T00:25:16.325Z,90.61
2018-11-12T00:27:44.806Z,90.39
2018-11-12T00:30:15.333Z,90.47
2018-11-12T00:32:44.690Z,90.19
2018-11-12T00:35:13.273Z,90.57
2018-11-12T00:37:42.744Z,90.33
2018-11-12T00:40:13.315Z,90.30
2018-11-12T00:42:42.261Z,90.46
2018-11-12T00:45:11.561Z,90.24
2018-11-12T00:47:40.317Z,90.34
2018-11-12T00:50:10.051Z,90.43
2018-11-12T00:52:38.665Z,90.40
2018-11-12T00:55:08.273Z,90.24
2018-11-12T00:57:36.833Z,90.20
2018-11-12T01:00:06.943Z,90.31
2018-11-12T01:02:35.836Z,90.12
2018-11-12T01:05:04.459Z,90.25
2018-11-12T01:07:33.223Z,90.21
2018-11-12T01:10:01.873Z,89.97
2018-11-12T01:12:30.370Z,90.32
2018-11-12T01:14:59.158Z,90.19
2018-11-12T01:17:27.721Z,90.26
2018-11-12T01:19:56.230Z,89.96
2018-11-12T01:22:24.799Z,90.10
2018-11-12T01:24:53.577Z,89.95
2018-11-12T01:27:22.145Z,89.91
2018-11-12T01:29:51.006Z,90.17
2018-11-12T01:32:19.730Z,90.09
2018-11-12T01:34:48.211Z,90.12
2018-11-12T01:37:17.942Z,90.04
2018-11-12T01:39:46.674Z,90.03
2018-11-12T01:42:15.190Z,90.01
2018-11-12T01:44:43.999Z,90.18
2018-11-12T01:47:12.672Z,90.02
2018-11-12T01:49:41.212Z,90.07
2018-11-12T01:52:09.753Z,90.04
2018-11-12T01:54:38.415Z,90.06
2018-11-12T01:57:06.926Z,89.89
2018-11-12T01:59:35.803Z,89.99
2018-11-12T02:02:04.493Z,90.03
2018-11-12T02:04:32.959Z,89.95
2018-11-12T02:07:01.831Z,90.04
2018-11-12T02:09:30.837Z,90.12
2018-11-12T02:11:59.353Z,90.29
2018-11-12T02:14:28.289Z,90.12
2018-11-12T02:16:56.885Z,90.23
2018-11-12T02:19:25.559Z,90.00
2018-11-12T02:21:54.224Z,89.89
2018-11-12T02:24:22.759Z,90.02
2018-11-12T02:26:51.257Z,90.00
2018-11-12T02:29:19.894Z,90.06
2018-11-12T02:31:51.255Z,90.05
2018-11-12T02:34:19.737Z,90.10
2018-11-12T02:36:48.487Z,90.14
2018-11-12T02:39:17.307Z,90.02
2018-11-12T02:41:45.850Z,90.28
2018-11-12T02:44:14.847Z,90.25
2018-11-12T02:46:43.425Z,90.30
2018-11-12T02:49:11.905Z,90.37
2018-11-12T02:51:40.602Z,90.08
2018-11-12T02:54:09.164Z,90.24
2018-11-12T02:56:37.622Z,90.35
2018-11-12T02:59:06.350Z,90.12
2018-11-12T03:01:35.073Z,90.20
2018-11-12T03:04:03.573Z,90.54
2018-11-12T03:06:32.402Z,90.46
2018-11-12T03:09:01.265Z,90.39
2018-11-12T03:11:29.940Z,90.54
2018-11-12T03:13:58.473Z,90.58
2018-11-12T03:16:27.293Z,90.74
2018-11-12T03:18:55.769Z,90.85
2018-11-12T03:21:24.517Z,90.66
2018-11-12T03:23:53.052Z,90.83
2018-11-12T03:26:21.589Z,90.67
2018-11-12T03:28:50.323Z,90.47
2018-11-12T03:31:19.078Z,90.60
2018-11-12T03:33:47.595Z,90.66
2018-11-12T03:36:16.173Z,90.61
2018-11-12T03:38:44.694Z,90.64
2018-11-12T03:41:13.236Z,90.57
2018-11-12T03:43:41.821Z,90.68
2018-11-12T03:46:10.489Z,90.72
2018-11-12T03:48:39.078Z,90.51
2018-11-12T03:51:08.122Z,90.66
2018-11-12T03:53:36.846Z,90.78
2018-11-12T03:56:05.978Z,90.62
2018-11-12T03:58:34.794Z,90.84
2018-11-12T04:01:03.577Z,90.83
2018-11-12T04:03:32.125Z,90.85
2018-11-12T04:06:01.201Z,90.83
2018-11-12T04:08:29.769Z,91.10
2018-11-12T04:10:58.226Z,90.97
2018-11-12T04:13:27.201Z,90.95
2018-11-12T04:15:55.829Z,91.08
2018-11-12T04:18:24.349Z,91.05
2018-11-12T04:20:53.026Z,91.04
2018-11-12T04:23:21.690Z,91.13
2018-11-12T04:25:50.394Z,91.15
2018-11-12T04:28:19.086Z,91.30
2018-11-12T04:30:47.641Z,91.15
2018-11-12T04:33:16.113Z,91.14
2018-11-12T04:35:44.770Z,91.06
2018-11-12T04:38:14.109Z,90.99
2018-11-12T04:40:42.754Z,91.15
2018-11-12T04:43:11.361Z,91.28
2018-11-12T04:45:40.345Z,91.34
2018-11-12T04:48:08.810Z,91.64
2018-11-12T04:50:37.494Z,91.30
2018-11-12T04:53:06.480Z,91.30
2018-11-12T04:55:35.002Z,91.09
2018-11-12T04:58:03.868Z,91.16
2018-11-12T05:00:32.685Z,91.11
2018-11-12T05:03:01.145Z,91.16
2018-11-12T05:05:29.974Z,91.28
2018-11-12T05:07:58.553Z,91.27
2018-11-12T05:10:27.969Z,91.15
2018-11-12T05:12:57.204Z,91.32
2018-11-12T05:15:26.254Z,91.22
2018-11-12T05:17:54.817Z,91.36
2018-11-12T05:20:25.409Z,91.18
2018-11-12T05:22:54.352Z,91.39
2018-11-12T05:25:22.826Z,91.28
2018-11-12T05:27:51.525Z,91.60
2018-11-12T05:30:21.445Z,91.53
2018-11-12T05:32:50.132Z,91.28
2018-11-12T05:35:23.025Z,91.54
2018-11-12T05:37:51.679Z,91.69
2018-11-12T05:40:22.334Z,91.50
2018-11-12T05:42:50.893Z,91.49
2018-11-12T05:45:20.697Z,91.35
2018-11-12T05:47:49.197Z,91.52
2018-11-12T05:50:20.997Z,91.46
2018-11-12T05:52:50.632Z,91.66
2018-11-12T05:55:20.513Z,91.64
2018-11-12T05:57:49.830Z,91.48
2018-11-12T06:00:27.756Z,91.58
2018-11-12T06:02:56.325Z,91.54
2018-11-12T06:05:24.859Z,91.57
2018-11-12T06:07:53.380Z,91.48
2018-11-12T06:10:23.389Z,91.52
2018-11-12T06:12:52.077Z,91.37
2018-11-12T06:15:20.827Z,91.38
2018-11-12T06:17:50.977Z,91.36
2018-11-12T06:20:28.217Z,91.36
2018-11-12T06:22:56.869Z,91.67
2018-11-12T06:25:26.834Z,91.50
2018-11-12T06:27:56.063Z,91.50
2018-11-12T06:30:26.445Z,91.47
2018-11-12T06:32:54.940Z,91.33
2018-11-12T06:35:23.846Z,91.56
2018-11-12T06:37:53.363Z,91.81
2018-11-12T06:40:22.970Z,91.75
2018-11-12T06:42:51.793Z,91.34
2018-11-12T06:45:22.800Z,91.38
2018-11-12T06:47:52.163Z,91.58
2018-11-12T06:50:22.033Z,91.71
2018-11-12T06:52:50.886Z,91.71
2018-11-12T06:55:19.847Z,91.65
2018-11-12T06:57:48.894Z,91.91
2018-11-12T07:00:21.067Z,91.83
2018-11-12T07:02:49.646Z,91.94
2018-11-12T07:05:18.278Z,91.87
2018-11-12T07:07:47.961Z,91.70
2018-11-12T07:10:17.781Z,91.56
2018-11-12T07:12:47.308Z,91.94
2018-11-12T07:15:17.015Z,91.65
2018-11-12T07:17:45.929Z,91.84
2018-11-12T07:20:17.912Z,91.46
2018-11-12T07:22:46.641Z,91.72
2018-11-12T07:25:16.378Z,91.86
2018-11-12T07:27:45.255Z,91.82
2018-11-12T07:30:16.409Z,91.63
2018-11-12T07:32:45.390Z,91.18
2018-11-12T07:35:15.306Z,91.46
2018-11-12T07:37:44.973Z,91.36
2018-11-12T07:40:14.193Z,91.62
2018-11-12T07:42:43.215Z,91.61
2018-11-12T07:45:14.406Z,91.54
2018-11-12T07:47:44.135Z,91.52
2018-11-12T07:50:15.771Z,91.46
2018-11-12T07:52:44.504Z,91.51
2018-11-12T07:55:15.177Z,91.54
2018-11-12T07:57:44.430Z,91.61
2018-11-12T08:00:17.409Z,91.53
2018-11-12T08:02:46.891Z,91.65
2018-11-12T08:05:15.561Z,91.44
2018-11-12T08:07:44.853Z,91.78
2018-11-12T08:10:15.266Z,91.47
2018-11-12T08:12:44.497Z,91.82
2018-11-12T08:15:14.205Z,91.70
2018-11-12T08:17:43.051Z,91.77
2018-11-12T08:20:14.684Z,91.61
2018-11-12T08:22:44.649Z,91.77
2018-11-12T08:25:13.668Z,91.74
2018-11-12T08:27:42.766Z,91.39
2018-11-12T08:30:13.827Z,91.58
2018-11-12T08:32:42.885Z,91.50
2018-11-12T08:35:11.550Z,91.46
2018-11-12T08:37:40.645Z,91.55
2018-11-12T08:40:11.021Z,91.37
2018-11-12T08:42:39.529Z,91.29
2018-11-12T08:45:09.834Z,91.56
2018-11-12T08:47:38.904Z,91.20
2018-11-12T08:50:13.551Z,91.43
2018-11-12T08:52:43.083Z,91.38
2018-11-12T08:55:15.550Z,91.36
2018-11-12T08:57:45.835Z,91.32
2018-11-12T09:00:14.902Z,91.44
2018-11-12T09:02:44.145Z,91.04
2018-11-12T09:05:14.029Z,91.27
2018-11-12T09:07:43.860Z,91.16
2018-11-12T09:10:14.441Z,91.22
2018-11-12T09:12:43.505Z,91.16
2018-11-12T09:15:12.297Z,91.06
2018-11-12T09:17:42.097Z,91.14
2018-11-12T09:20:12.901Z,91.17
2018-11-12T09:22:41.381Z,90.99
2018-11-12T09:25:13.947Z,90.65
2018-11-12T09:27:42.541Z,90.86
2018-11-12T09:30:16.275Z,90.83
2018-11-12T09:32:45.373Z,90.68
2018-11-12T09:35:14.945Z,90.48
2018-11-12T09:37:45.352Z,90.43
2018-11-12T09:40:16.853Z,90.27
2018-11-12T09:42:45.446Z,90.24
2018-11-12T09:45:14.074Z,90.25
2018-11-12T09:47:43.488Z,89.93
2018-11-12T09:50:18.747Z,90.11
2018-11-12T09:52:49.516Z,90.00
2018-11-12T09:55:18.930Z,89.97
2018-11-12T09:57:49.097Z,89.84
2018-11-12T10:00:19.065Z,89.96
2018-11-12T10:02:49.221Z,90.08
2018-11-12T10:05:18.712Z,89.81
2018-11-12T10:07:49.777Z,89.88
2018-11-12T10:10:24.719Z,89.79
2018-11-12T10:12:53.407Z,89.61
2018-11-12T10:15:22.189Z,89.81
2018-11-12T10:17:51.238Z,89.78
2018-11-12T10:20:17.537Z,89.78
2018-11-12T10:22:46.714Z,89.76
2018-11-12T10:25:15.996Z,89.72
2018-11-12T10:27:44.830Z,89.68
2018-11-12T10:30:13.397Z,89.72
2018-11-12T10:32:41.881Z,89.54
2018-11-12T10:35:11.378Z,89.30
2018-11-12T10:37:40.724Z,89.35
2018-11-12T10:40:13.554Z,89.37
2018-11-12T10:42:42.309Z,89.32
2018-11-12T10:45:10.343Z,89.04
2018-11-12T10:47:39.315Z,88.99
2018-11-12T10:50:09.517Z,88.73
2018-11-12T10:52:38.060Z,88.72
2018-11-12T10:55:08.701Z,88.48
2018-11-12T10:57:37.692Z,88.50
2018-11-12T11:00:15.046Z,88.48
2018-11-12T11:02:48.873Z,88.36
2018-11-12T11:05:18.243Z,88.40
2018-11-12T11:07:46.743Z,88.51
2018-11-12T11:10:15.390Z,88.56
2018-11-12T11:12:44.809Z,88.61
2018-11-12T11:15:13.455Z,88.40
2018-11-12T11:17:41.968Z,88.36
2018-11-12T11:20:10.564Z,88.28
2018-11-12T11:22:39.170Z,88.23
2018-11-12T11:25:07.949Z,88.10
2018-11-12T11:27:36.689Z,88.24
2018-11-12T11:30:07.166Z,88.13
2018-11-12T11:32:35.711Z,88.11
2018-11-12T11:35:04.397Z,88.19
2018-11-12T11:37:32.862Z,88.15
2018-11-12T11:40:01.590Z,88.23
2018-11-12T11:42:30.193Z,88.21
2018-11-12T11:44:58.837Z,88.16
2018-11-12T11:47:27.698Z,88.01
2018-11-12T11:49:56.488Z,88.03
2018-11-12T11:52:25.567Z,87.98
2018-11-12T11:54:54.364Z,87.91
2018-11-12T11:57:23.384Z,87.90
2018-11-12T11:59:51.828Z,88.01
2018-11-12T12:02:20.770Z,88.20
2018-11-12T12:04:49.497Z,88.08
2018-11-12T12:07:17.974Z,87.99
2018-11-12T12:09:46.768Z,87.88
2018-11-12T12:12:15.487Z,88.13
2018-11-12T12:14:44.295Z,88.00
2018-11-12T12:17:13.129Z,88.10
2018-11-12T12:19:41.698Z,88.07
2018-11-12T12:22:10.516Z,87.93
2018-11-12T12:24:39.650Z,88.02
2018-11-12T12:27:08.304Z,87.82
2018-11-12T12:29:36.874Z,87.79
2018-11-12T12:32:05.822Z,87.89
2018-11-12T12:34:34.434Z,87.71
2018-11-12T12:37:02.905Z,87.72
2018-11-12T12:39:31.480Z,87.92
2018-11-12T12:42:00.453Z,87.84
2018-11-12T12:44:29.604Z,87.71
2018-11-12T12:46:58.599Z,87.66
2018-11-12T12:49:27.163Z,87.86
2018-11-12T12:51:56.400Z,87.80
2018-11-12T12:54:25.275Z,87.82
2018-11-12T12:56:54.002Z,87.95
2018-11-12T12:59:22.450Z,87.97
2018-11-12T13:01:51.440Z,88.13
2018-11-12T13:04:20.377Z,88.00
2018-11-12T13:06:48.818Z,87.82
2018-11-12T13:09:17.596Z,88.07
2018-11-12T13:11:46.155Z,88.15
2018-11-12T13:14:14.657Z,87.73
2018-11-12T13:16:43.183Z,88.01
2018-11-12T13:19:11.889Z,88.06
2018-11-12T13:21:40.847Z,88.02
2018-11-12T13:24:09.546Z,88.04
2018-11-12T13:26:38.238Z,87.85
2018-11-12T13:29:06.689Z,87.92
2018-11-12T13:31:35.901Z,87.96
2018-11-12T13:34:04.717Z,87.86
2018-11-12T13:36:33.168Z,87.88
2018-11-12T13:39:01.920Z,87.85
2018-11-12T13:41:30.706Z,87.92
2018-11-12T13:43:59.212Z,87.71
2018-11-12T13:46:33.587Z,87.84
2018-11-12T13:49:02.234Z,87.60
2018-11-12T13:51:30.904Z,87.65
2018-11-12T13:53:59.493Z,87.72
2018-11-12T13:56:28.013Z,87.60
2018-11-12T13:58:56.437Z,87.54
2018-11-12T14:01:25.286Z,87.52
2018-11-12T14:03:54.119Z,87.44
2018-11-12T14:06:22.646Z,87.65
2018-11-12T14:08:51.326Z,87.65
2018-11-12T14:11:20.093Z,87.40
2018-11-12T14:13:48.557Z,87.50
2018-11-12T14:16:17.394Z,87.56
2018-11-12T14:18:46.038Z,87.49
2018-11-12T14:21:14.616Z,87.39
2018-11-12T14:23:43.458Z,87.49
2018-11-12T14:26:12.206Z,87.58
2018-11-12T14:28:40.810Z,87.45
2018-11-12T14:31:09.576Z,87.41
2018-11-12T14:33:38.584Z,87.49
2018-11-12T14:36:07.277Z,87.35
2018-11-12T14:38:35.770Z,87.46
2018-11-12T14:41:04.861Z,87.42
2018-11-12T14:43:33.355Z,87.48
2018-11-12T14:46:02.303Z,87.40
2018-11-12T14:48:30.823Z,87.23
2018-11-12T14:50:59.300Z,87.18
2018-11-12T14:53:28.130Z,87.25
2018-11-12T14:55:56.674Z,87.19
2018-11-12T14:58:26.865Z,87.39
2018-11-12T15:00:55.594Z,87.55
2018-11-12T15:03:24.152Z,87.39
2018-11-12T15:05:52.596Z,87.44
2018-11-12T15:08:21.393Z,87.68
2018-11-12T15:10:50.465Z,87.47
2018-11-12T15:13:18.910Z,87.45
2018-11-12T15:15:47.760Z,87.63
2018-11-12T15:18:16.764Z,87.46
2018-11-12T15:20:45.287Z,87.12
2018-11-12T15:23:14.118Z,87.42
2018-11-12T15:25:42.889Z,87.43
2018-11-12T15:28:11.370Z,87.61
2018-11-12T15:30:40.090Z,87.37
2018-11-12T15:33:08.955Z,87.37
2018-11-12T15:35:37.569Z,87.58
2018-11-12T15:38:06.814Z,87.19
2018-11-12T15:40:36.509Z,87.22
2018-11-12T15:43:05.033Z,87.22
2018-11-12T15:45:33.821Z,87.17
2018-11-12T15:48:02.493Z,87.47
2018-11-12T15:50:32.858Z,87.45
2018-11-12T15:53:01.630Z,87.21
2018-11-12T15:55:30.199Z,87.45
2018-11-12T15:57:58.879Z,87.45
2018-11-12T16:00:28.134Z,87.63
2018-11-12T16:02:56.655Z,87.56
2018-11-12T16:05:25.166Z,87.62
2018-11-12T16:07:54.151Z,87.64
2018-11-12T16:10:23.111Z,87.79
2018-11-12T16:12:51.617Z,87.61
2018-11-12T16:15:21.440Z,87.78
2018-11-12T16:17:50.606Z,87.74
2018-11-12T16:20:22.441Z,87.90
2018-11-12T16:22:51.342Z,87.79
2018-11-12T16:25:20.330Z,87.91
2018-11-12T16:27:49.464Z,87.71
2018-11-12T16:30:18.150Z,87.90
2018-11-12T16:32:47.235Z,87.99
2018-11-12T16:35:17.976Z,88.17
2018-11-12T16:37:47.563Z,88.20
2018-11-12T16:40:16.228Z,88.24
2018-11-12T16:42:46.123Z,88.47
2018-11-12T16:45:15.153Z,88.58
2018-11-12T16:47:43.974Z,88.40
2018-11-12T16:50:14.034Z,88.46
2018-11-12T16:52:42.627Z,88.48
2018-11-12T16:55:13.837Z,88.40
2018-11-12T16:57:42.881Z,88.42
2018-11-12T17:00:13.362Z,88.67
2018-11-12T17:02:42.444Z,88.92
2018-11-12T17:05:13.844Z,88.82
2018-11-12T17:07:42.609Z,88.91
2018-11-12T17:10:13.095Z,89.04
2018-11-12T17:12:42.974Z,88.93
2018-11-12T17:15:12.281Z,88.84
2018-11-12T17:17:41.110Z,88.85
2018-11-12T17:20:11.164Z,89.05
2018-11-12T17:22:39.766Z,88.97
2018-11-12T17:25:09.810Z,89.15
2018-11-12T17:27:38.467Z,89.17
2018-11-12T17:30:13.052Z,89.10
2018-11-12T17:32:42.480Z,89.06
2018-11-12T17:35:12.847Z,89.35
2018-11-12T17:37:41.427Z,89.30
2018-11-12T17:40:13.753Z,89.37
2018-11-12T17:42:42.426Z,89.20
2018-11-12T17:45:14.902Z,89.18
2018-11-12T17:47:44.581Z,89.66
2018-11-12T17:50:13.144Z,89.52
2018-11-12T17:52:42.118Z,89.18
2018-11-12T17:55:12.105Z,89.23
2018-11-12T17:57:40.775Z,89.46
2018-11-12T18:00:15.879Z,89.37
2018-11-12T18:02:44.481Z,89.23
2018-11-12T18:05:13.146Z,89.42
2018-11-12T18:07:42.574Z,89.44
2018-11-12T18:10:15.125Z,89.49
2018-11-12T18:12:44.942Z,89.49
2018-11-12T18:15:15.662Z,89.36
2018-11-12T18:17:44.846Z,89.57
2018-11-12T18:20:19.533Z,89.58
2018-11-12T18:22:48.310Z,89.44
2018-11-12T18:25:17.297Z,89.54
2018-11-12T18:27:46.264Z,89.53
2018-11-12T18:30:19.255Z,89.57
2018-11-12T18:32:48.929Z,89.60
2018-11-12T18:35:17.781Z,89.59
2018-11-12T18:37:46.682Z,89.32
2018-11-12T18:40:17.371Z,89.52
2018-11-12T18:42:46.283Z,89.47
2018-11-12T18:45:16.666Z,89.48
2018-11-12T18:47:45.606Z,89.43
2018-11-12T18:50:16.981Z,89.36
2018-11-12T18:52:45.796Z,89.47
2018-11-12T18:55:14.319Z,89.35
2018-11-12T18:57:44.034Z,89.59
2018-11-12T19:00:14.066Z,89.53
2018-11-12T19:02:42.630Z,89.46
2018-11-12T19:05:15.357Z,89.35
2018-11-12T19:07:44.808Z,89.37
2018-11-12T19:10:15.664Z,89.53
2018-11-12T19:12:45.394Z,89.39
2018-11-12T19:15:18.334Z,89.35
2018-11-12T19:17:49.134Z,89.37
2018-11-12T19:20:18.099Z,89.28
2018-11-12T19:22:46.629Z,89.34
2018-11-12T19:25:15.321Z,89.26
2018-11-12T19:27:44.264Z,89.30
2018-11-12T19:30:18.365Z,89.31
2018-11-12T19:32:47.011Z,89.21
2018-11-12T19:35:17.015Z,89.37
2018-11-12T19:37:45.760Z,89.34
2018-11-12T19:40:20.621Z,89.29
2018-11-12T19:42:50.257Z,89.21
2018-11-12T19:45:18.768Z,89.25
2018-11-12T19:47:48.433Z,89.13
2018-11-12T19:50:19.218Z,89.31
2018-11-12T19:52:49.007Z,89.27
2018-11-12T19:55:17.549Z,89.22
2018-11-12T19:57:47.918Z,89.37
2018-11-12T20:00:18.424Z,89.44
2018-11-12T20:02:48.485Z,89.23
2018-11-12T20:05:17.058Z,89.28
2018-11-12T20:07:45.702Z,89.47
2018-11-12T20:10:16.294Z,89.36
2018-11-12T20:12:45.416Z,89.55
2018-11-12T20:15:15.261Z,89.50
2018-11-12T20:17:44.889Z,89.57
2018-11-12T20:20:16.640Z,89.51
2018-11-12T20:22:45.950Z,89.40
2018-11-12T20:25:15.477Z,89.34
2018-11-12T20:27:44.333Z,89.53
2018-11-12T20:30:17.362Z,89.60
2018-11-12T20:32:46.462Z,89.58
2018-11-12T20:35:14.950Z,89.57
2018-11-12T20:37:43.613Z,89.69
2018-11-12T20:40:13.992Z,89.50
2018-11-12T20:42:43.670Z,89.62
2018-11-12T20:45:13.748Z,89.56
2018-11-12T20:47:42.920Z,89.36
2018-11-12T20:50:12.550Z,89.66
2018-11-12T20:52:41.583Z,89.68
2018-11-12T20:55:11.179Z,89.68
2018-11-12T20:57:40.199Z,89.80
2018-11-12T21:00:12.151Z,89.69
2018-11-12T21:02:41.664Z,89.53
2018-11-12T21:05:10.842Z,89.58
2018-11-12T21:07:40.203Z,89.60
2018-11-12T21:10:10.505Z,89.76
2018-11-12T21:12:39.446Z,89.34
2018-11-12T21:15:09.547Z,89.56
2018-11-12T21:17:38.099Z,89.48
2018-11-12T21:20:08.485Z,89.51
2018-11-12T21:22:37.241Z,89.59
2018-11-12T21:25:06.973Z,89.50
2018-11-12T21:27:35.704Z,89.38
2018-11-12T21:30:04.493Z,89.35
2018-11-12T21:32:32.935Z,89.28
2018-11-12T21:35:01.689Z,89.42
2018-11-12T21:37:30.537Z,89.37
2018-11-12T21:39:59.074Z,89.18
2018-11-12T21:42:28.223Z,89.18
2018-11-12T21:44:57.109Z,89.29
2018-11-12T21:47:25.633Z,88.87
2018-11-12T21:49:54.167Z,89.32
2018-11-12T21:52:22.827Z,89.25
2018-11-12T21:54:51.300Z,89.19
2018-11-12T21:57:19.906Z,89.32
2018-11-12T21:59:49.086Z,89.27
2018-11-12T22:02:17.515Z,89.31
2018-11-12T22:04:46.122Z,89.24
2018-11-12T22:07:15.783Z,89.26
2018-11-12T22:09:44.366Z,89.15
2018-11-12T22:12:12.927Z,89.14
2018-11-12T22:14:41.637Z,89.27
2018-11-12T22:17:10.171Z,89.08
2018-11-12T22:19:38.856Z,89.13
2018-11-12T22:22:08.051Z,89.01
2018-11-12T22:24:36.580Z,89.05
2018-11-12T22:27:05.183Z,89.34
2018-11-12T22:29:34.154Z,89.25
2018-11-12T22:32:02.747Z,88.98
2018-11-12T22:34:31.357Z,89.37
2018-11-12T22:37:00.463Z,89.39
2018-11-12T22:39:28.925Z,89.32
2018-11-12T22:41:57.410Z,89.33
2018-11-12T22:44:26.577Z,89.55
2018-11-12T22:46:55.178Z,89.47
2018-11-12T22:49:23.641Z,89.52
2018-11-12T22:51:52.408Z,89.63
2018-11-12T22:54:20.927Z,89.42
2018-11-12T22:56:49.457Z,89.87
2018-11-12T22:59:18.148Z,89.90
2018-11-12T23:01:46.597Z,89.71
2018-11-12T23:04:15.233Z,89.82
2018-11-12T23:06:44.743Z,89.92
2018-11-12T23:09:14.942Z,89.60
2018-11-12T23:11:43.517Z,89.96
2018-11-12T23:14:13.261Z,89.93
2018-11-12T23:16:42.283Z,89.93
2018-11-12T23:19:10.774Z,89.97
2018-11-12T23:21:40.205Z,89.96
2018-11-12T23:24:08.995Z,89.89
2018-11-12T23:26:37.868Z,89.85
2018-11-12T23:29:06.665Z,90.16
2018-11-12T23:31:35.386Z,90.01
2018-11-12T23:34:03.849Z,90.07
2018-11-12T23:36:32.660Z,89.93
2018-11-12T23:39:01.338Z,90.26
2018-11-12T23:41:29.806Z,89.87
2018-11-12T23:43:58.646Z,90.07
2018-11-12T23:46:27.503Z,90.16
2018-11-12T23:48:56.169Z,90.29
2018-11-12T23:51:24.730Z,90.25
2018-11-12T23:53:53.313Z,90.15
2018-11-12T23:56:21.893Z,89.99
2018-11-12T23:58:50.661Z,90.18
